Merlot Commodore — WDD7653 — position and weather

sailwx.info

Track history (hours):
 
Tides and Currents Weather Stations Pressure Air Temp Water Temp Dewpoint Dewpoint Depression Visibility Wind Speed Wind Dir Waves Ship Positions

Merlot Commodore

Owner: Proescher, Ward H, Alameda, CA. More information available from US FCC via Universal Licensing System and Coast Guard Vessel Documentation Center.

Last reported at 2018-Jul-15 21:47 UTC. Time now 2018-Jul-16 14:40 UTC.
Position N 37°47' W 122°17'.

Length 24 m; draft 1.8 m.

Type: Passenger vessel. MMSI: 367189370.

Date/timePositionNaut miles runAvg speedWind from/ knotsBaromVisibWave heightAir tempDewpointWater temp
2018-Jul-15 21:47N 37°47' W 122°17'0 0.3
2018-Jul-15 21:30N 37°48' W 122°17'3 6.5
2018-Jul-15 21:00N 37°47' W 122°21'2 4.2
2018-Jul-15 20:30N 37°47' W 122°23'2 4.4
2018-Jul-15 20:00N 37°49' W 122°24'1 1.1
2018-Jul-15 19:31N 37°49' W 122°25'2 4.8
2018-Jul-15 19:00N 37°47' W 122°23'3 5.9
2018-Jul-15 18:30N 37°48' W 122°20'2 5.0
2018-Jul-15 18:00N 37°47' W 122°17'0 0.0
2018-Jul-15 17:31N 37°47' W 122°17'0 0.0
2018-Jul-15 16:35N 37°47' W 122°17'0 0.0
2018-Jul-15 16:30N 37°47' W 122°17'0 0.0
2018-Jul-15 16:00N 37°47' W 122°17'0 0.0
2018-Jul-15 15:30N 37°47' W 122°17'0 0.0
2018-Jul-14 23:28N 37°47' W 122°17'0 0.7
2018-Jul-14 23:00N 37°48' W 122°17'3 6.0
2018-Jul-14 22:30N 37°48' W 122°21'2 3.8
2018-Jul-14 22:00N 37°49' W 122°23'2 3.8
2018-Jul-14 21:30N 37°50' W 122°25'3 6.6
2018-Jul-14 21:00N 37°47' W 122°23'3 6.5
2018-Jul-14 20:30N 37°48' W 122°19'2 4.4
2018-Jul-14 20:00N 37°47' W 122°17'0 0.0
2018-Jul-14 19:30N 37°47' W 122°17'0 0.0
2018-Jul-14 16:53N 37°47' W 122°17'0 0.0
2018-Jul-14 16:30N 37°47' W 122°17'0 0.0
2018-Jul-14 16:00N 37°47' W 122°17'0 0.0
2018-Jul-14 15:30N 37°47' W 122°17'0 0.0
2018-Jul-13 18:46N 37°47' W 122°17'  
2018-Jul-10 04:39N 37°47' W 122°17'0 0.0
2018-Jul-10 04:29N 37°47' W 122°17'1 1.2
2018-Jul-10 04:00N 37°48' W 122°17'3 6.9
2018-Jul-10 03:30N 37°48' W 122°22'4 7.4
2018-Jul-10 03:00N 37°50' W 122°26'1 2.5
2018-Jul-10 02:28N 37°49' W 122°26'3 6.0
2018-Jul-10 02:00N 37°48' W 122°23'3 6.7
2018-Jul-10 01:30N 37°48' W 122°19'2 3.5
2018-Jul-10 01:00N 37°47' W 122°17'0 0.0
2018-Jul-10 00:30N 37°47' W 122°17'0 0.0
2018-Jul-09 17:18N 37°47' W 122°17'0 0.0
2018-Jul-09 17:00N 37°47' W 122°17'0 0.0
2018-Jul-08 21:04N 37°47' W 122°17'0 0.0
2018-Jul-08 21:00N 37°47' W 122°17'0 0.2
2018-Jul-08 20:30N 37°48' W 122°17'3 6.9
2018-Jul-08 20:00N 37°48' W 122°21'2 3.9
2018-Jul-08 19:30N 37°48' W 122°24'2 3.6
2018-Jul-08 19:00N 37°49' W 122°26'4 7.7
2018-Jul-08 18:30N 37°48' W 122°21'3 6.8
2018-Jul-08 18:00N 37°47' W 122°17'0 0.0
2018-Jul-08 17:30N 37°47' W 122°17'0 0.0
2018-Jul-08 17:00N 37°47' W 122°17'0 0.0
2018-Jul-08 16:17N 37°47' W 122°17'0 0.0
2018-Jul-08 16:00N 37°47' W 122°17'0 0.0
2018-Jul-08 15:30N 37°47' W 122°17'0 0.0
2018-Jul-08 06:51N 37°47' W 122°17'0 0.0
2018-Jul-08 06:30N 37°47' W 122°17'3 6.8
2018-Jul-08 06:01N 37°48' W 122°21'2 4.1
2018-Jul-08 05:31N 37°47' W 122°23'0 0.5
2018-Jul-08 05:00N 37°47' W 122°23'3 6.0
2018-Jul-08 04:30N 37°49' W 122°22'3 5.7
2018-Jul-08 04:01N 37°50' W 122°25'3 6.6
2018-Jul-08 03:30N 37°52' W 122°29'3 5.0
2018-Jul-08 03:00N 37°49' W 122°29'3 5.7
2018-Jul-08 02:31N 37°49' W 122°25'2 4.7
2018-Jul-08 02:00N 37°47' W 122°23'0 0.0
2018-Jul-08 01:30N 37°47' W 122°23'3 6.8
2018-Jul-08 01:00N 37°48' W 122°19'2 3.7
2018-Jul-08 00:30N 37°47' W 122°17'0 0.0
2018-Jul-07 17:56N 37°47' W 122°17'0 0.0
2018-Jul-07 17:30N 37°47' W 122°17'0 0.0
2018-Jul-07 17:00N 37°47' W 122°17'0 0.0
2018-Jul-07 16:30N 37°47' W 122°17'0 0.0
2018-Jul-07 16:00N 37°47' W 122°17'0 0.0
2018-Jul-06 19:51N 37°47' W 122°17'0 0.3
2018-Jul-06 19:28N 37°48' W 122°17'0 0.1
2018-Jul-06 19:00N 37°48' W 122°17'  
Track history (hours):
 
Tides and Currents Weather Stations Pressure Air Temp Water Temp Dewpoint Dewpoint Depression Visibility Wind Speed Wind Dir Waves Ship Positions

Merlot Commodore

Owner: Proescher, Ward H, Alameda, CA. More information available from US FCC via Universal Licensing System and Coast Guard Vessel Documentation Center.

Last reported at 2018-Jul-15 21:47 UTC. Time now 2018-Jul-16 14:40 UTC.
Position N 37°47' W 122°17'.

Length 24 m; draft 1.8 m.

Type: Passenger vessel. MMSI: 367189370.

Date/timePositionNaut miles runAvg speedWind from/ knotsBaromVisibWave heightAir tempDewpointWater temp
2018-Jul-15 21:47N 37°47' W 122°17'0 0.3
2018-Jul-15 21:30N 37°48' W 122°17'3 6.5
2018-Jul-15 21:00N 37°47' W 122°21'2 4.2
2018-Jul-15 20:30N 37°47' W 122°23'2 4.4
2018-Jul-15 20:00N 37°49' W 122°24'1 1.1
2018-Jul-15 19:31N 37°49' W 122°25'2 4.8
2018-Jul-15 19:00N 37°47' W 122°23'3 5.9
2018-Jul-15 18:30N 37°48' W 122°20'2 5.0
2018-Jul-15 18:00N 37°47' W 122°17'0 0.0
2018-Jul-15 17:31N 37°47' W 122°17'0 0.0
2018-Jul-15 16:35N 37°47' W 122°17'0 0.0
2018-Jul-15 16:30N 37°47' W 122°17'0 0.0
2018-Jul-15 16:00N 37°47' W 122°17'0 0.0
2018-Jul-15 15:30N 37°47' W 122°17'0 0.0
2018-Jul-14 23:28N 37°47' W 122°17'0 0.7
2018-Jul-14 23:00N 37°48' W 122°17'3 6.0
2018-Jul-14 22:30N 37°48' W 122°21'2 3.8
2018-Jul-14 22:00N 37°49' W 122°23'2 3.8
2018-Jul-14 21:30N 37°50' W 122°25'3 6.6
2018-Jul-14 21:00N 37°47' W 122°23'3 6.5
2018-Jul-14 20:30N 37°48' W 122°19'2 4.4
2018-Jul-14 20:00N 37°47' W 122°17'0 0.0
2018-Jul-14 19:30N 37°47' W 122°17'0 0.0
2018-Jul-14 16:53N 37°47' W 122°17'0 0.0
2018-Jul-14 16:30N 37°47' W 122°17'0 0.0
2018-Jul-14 16:00N 37°47' W 122°17'0 0.0
2018-Jul-14 15:30N 37°47' W 122°17'0 0.0
2018-Jul-13 18:46N 37°47' W 122°17'  
2018-Jul-10 04:39N 37°47' W 122°17'0 0.0
2018-Jul-10 04:29N 37°47' W 122°17'1 1.2
2018-Jul-10 04:00N 37°48' W 122°17'3 6.9
2018-Jul-10 03:30N 37°48' W 122°22'4 7.4
2018-Jul-10 03:00N 37°50' W 122°26'1 2.5
2018-Jul-10 02:28N 37°49' W 122°26'3 6.0
2018-Jul-10 02:00N 37°48' W 122°23'3 6.7
2018-Jul-10 01:30N 37°48' W 122°19'2 3.5
2018-Jul-10 01:00N 37°47' W 122°17'0 0.0
2018-Jul-10 00:30N 37°47' W 122°17'0 0.0
2018-Jul-09 17:18N 37°47' W 122°17'0 0.0
2018-Jul-09 17:00N 37°47' W 122°17'0 0.0
2018-Jul-08 21:04N 37°47' W 122°17'0 0.0
2018-Jul-08 21:00N 37°47' W 122°17'0 0.2
2018-Jul-08 20:30N 37°48' W 122°17'3 6.9
2018-Jul-08 20:00N 37°48' W 122°21'2 3.9
2018-Jul-08 19:30N 37°48' W 122°24'2 3.6
2018-Jul-08 19:00N 37°49' W 122°26'4 7.7
2018-Jul-08 18:30N 37°48' W 122°21'3 6.8
2018-Jul-08 18:00N 37°47' W 122°17'0 0.0
2018-Jul-08 17:30N 37°47' W 122°17'0 0.0
2018-Jul-08 17:00N 37°47' W 122°17'0 0.0
2018-Jul-08 16:17N 37°47' W 122°17'0 0.0
2018-Jul-08 16:00N 37°47' W 122°17'0 0.0
2018-Jul-08 15:30N 37°47' W 122°17'0 0.0
2018-Jul-08 06:51N 37°47' W 122°17'0 0.0
2018-Jul-08 06:30N 37°47' W 122°17'3 6.8
2018-Jul-08 06:01N 37°48' W 122°21'2 4.1
2018-Jul-08 05:31N 37°47' W 122°23'0 0.5
2018-Jul-08 05:00N 37°47' W 122°23'3 6.0
2018-Jul-08 04:30N 37°49' W 122°22'3 5.7
2018-Jul-08 04:01N 37°50' W 122°25'3 6.6
2018-Jul-08 03:30N 37°52' W 122°29'3 5.0
2018-Jul-08 03:00N 37°49' W 122°29'3 5.7
2018-Jul-08 02:31N 37°49' W 122°25'2 4.7
2018-Jul-08 02:00N 37°47' W 122°23'0 0.0
2018-Jul-08 01:30N 37°47' W 122°23'3 6.8
2018-Jul-08 01:00N 37°48' W 122°19'2 3.7
2018-Jul-08 00:30N 37°47' W 122°17'0 0.0
2018-Jul-07 17:56N 37°47' W 122°17'0 0.0
2018-Jul-07 17:30N 37°47' W 122°17'0 0.0
2018-Jul-07 17:00N 37°47' W 122°17'0 0.0
2018-Jul-07 16:30N 37°47' W 122°17'0 0.0
2018-Jul-07 16:00N 37°47' W 122°17'0 0.0
2018-Jul-06 19:51N 37°47' W 122°17'0 0.3
2018-Jul-06 19:28N 37°48' W 122°17'0 0.1
2018-Jul-06 19:00N 37°48' W 122°17'  

Dump ship's entire track history